This is the latest recevied weather packets stored in our database for station/object K7FLA. If no packets are shown the sender has not sent any weather packets the latest 10 day(s).
| Time | Temp. | Humidity | Pressure | Rain* | Wind** | Luminosity | Snow |
|---|---|---|---|---|---|---|---|
| 1788361445 | 24.44° C | 21% | 1097.5 hPa | 0 mm | - | 187 W/m² | - |
| 1788361144 | 23.89° C | 22% | 1097.7 hPa | 0 mm | - | 170 W/m² | - |
| 1788360841 | 23.33° C | 27% | 1097.4 hPa | 0 mm | - | 156 W/m² | - |
| 1788360535 | 22.78° C | 27% | 1097.6 hPa | 0 mm | - | 142 W/m² | - |
| 1788360231 | 22.22° C | 29% | 1097.7 hPa | 0 mm | - | 129 W/m² | - |
| 1788359930 | 21.67° C | 30% | 1097.5 hPa | 0 mm | - | 116 W/m² | - |
| 1788359625 | 21.11° C | 33% | 1097.3 hPa | 0 mm | - | 103 W/m² | - |
| 1788359321 | 20° C | 29% | 1097.1 hPa | 0 mm | - | 91 W/m² | - |
| 1788359017 | 19.44° C | 36% | 1097.1 hPa | 0 mm | - | 81 W/m² | - |
| 1788358712 | 18.89° C | 39% | 1097.1 hPa | 0 mm | - | 71 W/m² | - |
| 1788358407 | 17.78° C | 40% | 1097.1 hPa | 0 mm | - | 60 W/m² | - |
| 1788358107 | 16.67° C | 41% | 1097 hPa | 0 mm | - | 52 W/m² | - |
| 1788357802 | 15.56° C | 45% | 1096.9 hPa | 0 mm | - | 43 W/m² | - |
| 1788357501 | 13.89° C | 47% | 1096.9 hPa | 0 mm | - | 35 W/m² | - |
| 1788357198 | 13.33° C | 48% | 1097 hPa | 0 mm | - | 28 W/m² | - |
| 1788356896 | 13.33° C | 48% | 1096.9 hPa | 0 mm | - | 16 W/m² | - |
| 1788356592 | 13.33° C | 49% | 1096.9 hPa | 0 mm | - | 14 W/m² | - |
| 1788356287 | 13.33° C | 49% | 1096.8 hPa | 0 mm | - | 12 W/m² | - |
| 1788355989 | 13.33° C | 51% | 1096.8 hPa | 0 mm | - | 9 W/m² | - |
| 1788355682 | 13.33° C | 53% | 1096.9 hPa | 0 mm | - | 6 W/m² | - |
| 1788355377 | 13.33° C | 52% | 1096.8 hPa | 0 mm | - | 4 W/m² | - |
| 1788355073 | 13.33° C | 51% | 1096.9 hPa | 0 mm | - | 2 W/m² | - |
| 1788354769 | 13.33° C | 51% | 1096.9 hPa | 0 mm | - | 1 W/m² | - |
| 1788354469 | 13.33° C | 51% | 1097.1 hPa | 0 mm | - | 0 W/m² | - |
| 1788354165 | 13.33° C | 50% | 1097 hPa | 0 mm | - | 0 W/m² | - |
* Rain latest hour (hover to see other rain measurements)
** Current wind speed in m/s (hover to see current wind gust speed)